createdAt,value
2022-09-07T04:28:21.674Z,88.92
2022-09-07T04:29:18.139Z,89.03
2022-09-07T04:30:19.631Z,89.03
2022-09-07T04:31:20.661Z,88.72
2022-09-07T04:32:22.878Z,88.92
2022-09-07T04:33:24.995Z,88.72
2022-09-07T04:34:27.111Z,88.62
2022-09-07T04:35:29.331Z,88.62
2022-09-07T04:36:31.497Z,88.32
2022-09-07T04:37:33.679Z,88.32
2022-09-07T04:38:35.308Z,88.83
2022-09-07T04:39:37.487Z,88.52
2022-09-07T04:40:39.690Z,88.72
2022-09-07T04:41:41.815Z,88.72
2022-09-07T04:42:43.937Z,88.62
2022-09-07T04:43:46.055Z,88.92
2022-09-07T04:44:48.177Z,88.42
2022-09-07T04:45:49.392Z,88.32
2022-09-07T04:46:51.737Z,87.87
2022-09-07T04:48:54.499Z,88.07
2022-09-07T04:49:55.789Z,87.87
2022-09-07T04:50:57.883Z,87.78
2022-09-07T04:52:00.008Z,87.57
2022-09-07T04:53:01.174Z,87.37
2022-09-07T04:54:03.299Z,87.27
2022-09-07T04:55:05.422Z,87.17
2022-09-07T04:56:07.552Z,87.47
2022-09-07T04:57:11.745Z,87.47
2022-09-07T04:58:11.547Z,87.17
2022-09-07T04:59:18.559Z,87.17
2022-09-07T05:00:14.101Z,87.53
2022-09-07T05:01:16.254Z,87.43
2022-09-07T05:02:17.314Z,87.03
2022-09-07T05:03:25.862Z,87.13
2022-09-07T05:04:21.041Z,87.13
2022-09-07T05:05:22.303Z,86.82
2022-09-07T05:06:24.432Z,87.03
2022-09-07T05:07:26.555Z,86.73
2022-09-07T05:08:28.769Z,86.62
2022-09-07T05:09:29.833Z,86.82
2022-09-07T05:10:30.785Z,86.93
2022-09-07T05:11:33.163Z,86.82
2022-09-07T05:12:34.378Z,86.52
2022-09-07T05:13:36.535Z,86.42
2022-09-07T05:14:38.616Z,86.32
2022-09-07T05:15:39.789Z,86.22
2022-09-07T05:16:42.121Z,86.52
2022-09-07T05:17:43.115Z,86.08
2022-09-07T05:18:45.433Z,85.77
2022-09-07T05:19:46.455Z,86.08
2022-09-07T05:20:48.579Z,85.47
2022-09-07T05:21:49.739Z,85.47
2022-09-07T05:22:52.070Z,85.27
2022-09-07T05:24:00.292Z,85.03
2022-09-07T05:24:55.416Z,84.63
2022-09-07T05:25:57.143Z,84.73
2022-09-07T05:26:59.003Z,84.87
2022-09-07T05:28:03.341Z,85.07
2022-09-07T05:30:04.987Z,84.83
2022-09-07T05:31:23.505Z,84.53
2022-09-07T05:32:08.296Z,84.08
2022-09-07T05:33:09.453Z,84.04
2022-09-07T05:35:13.270Z,83.28
2022-09-07T05:36:14.312Z,83.44
2022-09-07T05:37:15.406Z,82.94
2022-09-07T05:38:17.552Z,82.73
2022-09-07T05:39:19.784Z,83.28
2022-09-07T05:40:21.889Z,82.98
2022-09-07T05:41:23.984Z,82.84
2022-09-07T05:42:25.163Z,82.23
2022-09-07T05:43:27.481Z,82.44
2022-09-07T05:44:45.504Z,82.73
2022-09-07T05:45:32.102Z,82.44
2022-09-07T05:46:32.141Z,82.67
2022-09-07T05:47:40.365Z,83.48
2022-09-07T05:48:35.453Z,83.34
2022-09-07T05:49:37.611Z,82.64
2022-09-07T05:50:38.917Z,82.13
2022-09-07T05:51:45.951Z,82.19
2022-09-07T05:52:41.508Z,81.69
2022-09-07T05:53:43.628Z,80.95
2022-09-07T05:54:54.353Z,80.31
2022-09-07T05:55:47.972Z,80.10
2022-09-07T05:56:50.125Z,79.46
2022-09-07T05:57:51.833Z,79.37
2022-09-07T05:58:53.960Z,79.06
2022-09-07T05:59:56.089Z,78.93
2022-09-07T06:00:58.213Z,78.42
2022-09-07T06:02:00.510Z,78.08
2022-09-07T06:03:01.650Z,77.48
2022-09-07T06:04:03.101Z,76.84
2022-09-07T06:05:04.475Z,76.54
2022-09-07T06:06:05.855Z,76.68
2022-09-07T06:07:22.806Z,76.64
2022-09-07T06:08:10.171Z,75.13
2022-09-07T06:09:11.407Z,73.16
2022-09-07T06:11:14.272Z,69.95
2022-09-07T06:12:15.464Z,69.52
2022-09-07T06:13:16.699Z,68.85
2022-09-07T06:14:18.823Z,68.16
2022-09-07T06:15:19.777Z,67.36
2022-09-07T06:16:20.825Z,67.52
2022-09-07T06:17:22.049Z,65.97
2022-09-07T06:18:23.246Z,64.61
2022-09-07T06:19:25.590Z,64.24
2022-09-07T06:20:26.658Z,64.84
2022-09-07T06:21:27.948Z,65.74
2022-09-07T06:22:31.236Z,66.30
2022-09-07T06:23:31.377Z,64.48
2022-09-07T06:24:32.376Z,64.18
2022-09-07T06:25:34.496Z,64.34
2022-09-07T06:26:36.706Z,67.56
2022-09-07T06:27:38.849Z,66.93
2022-09-07T06:28:40.138Z,66.27
2022-09-07T06:29:42.275Z,64.81
2022-09-07T06:30:43.940Z,64.87
2022-09-07T06:32:47.384Z,64.71
2022-09-07T06:33:48.580Z,64.21
2022-09-07T06:34:50.940Z,63.58
2022-09-07T06:35:52.103Z,63.78
2022-09-07T06:36:53.280Z,63.25
2022-09-07T06:37:55.048Z,62.63
2022-09-07T06:38:56.232Z,61.67
2022-09-07T06:39:58.618Z,60.68
2022-09-07T06:42:01.912Z,60.68
2022-09-07T06:43:02.892Z,61.86
2022-09-07T06:44:03.846Z,61.83
2022-09-07T06:45:05.991Z,61.30
2022-09-07T06:47:09.566Z,60.85
2022-09-07T06:48:10.642Z,60.58
2022-09-07T06:49:11.815Z,60.15
2022-09-07T06:50:20.219Z,61.13
2022-09-07T06:51:15.346Z,64.51
2022-09-07T06:52:17.670Z,63.78
2022-09-07T06:53:34.218Z,61.18
2022-09-07T06:55:21.699Z,60.13
2022-09-07T06:56:22.967Z,58.12
2022-09-07T06:57:24.273Z,56.07
2022-09-07T06:58:25.265Z,55.22
2022-09-07T06:59:33.518Z,55.39
2022-09-07T07:00:28.931Z,52.65
2022-09-07T07:01:31.378Z,51.69
2022-09-07T07:02:32.410Z,50.75
2022-09-07T07:03:34.174Z,49.77
2022-09-07T07:04:40.521Z,52.06
2022-09-07T07:05:38.448Z,51.39
2022-09-07T07:06:39.621Z,51.12
2022-09-07T07:07:41.801Z,52.48
2022-09-07T07:08:42.982Z,53.39
2022-09-07T07:09:45.103Z,53.54
2022-09-07T07:10:47.238Z,54.26
2022-09-07T07:11:49.371Z,55.08
2022-09-07T07:12:50.564Z,56.19
2022-09-07T07:13:57.677Z,57.18
2022-09-07T07:14:53.040Z,56.09
2022-09-07T07:15:54.785Z,56.79
2022-09-07T07:16:55.801Z,56.09
2022-09-07T07:18:00.617Z,53.22
2022-09-07T07:19:00.313Z,50.63
2022-09-07T07:20:01.279Z,48.35
2022-09-07T07:21:03.642Z,46.14
2022-09-07T07:22:18.625Z,47.86
2022-09-07T07:23:06.928Z,48.44
2022-09-07T07:24:08.385Z,49.72
2022-09-07T07:25:09.440Z,51.22
2022-09-07T07:26:17.619Z,52.55
2022-09-07T07:27:13.043Z,53.17
2022-09-07T07:29:18.569Z,56.01
2022-09-07T07:30:16.551Z,54.51
2022-09-07T07:31:18.850Z,53.34
2022-09-07T07:32:20.039Z,53.26
2022-09-07T07:33:22.166Z,51.32
2022-09-07T07:34:23.465Z,51.91
2022-09-07T07:35:25.666Z,50.43
2022-09-07T07:36:27.807Z,47.58
2022-09-07T07:37:36.022Z,47.47
2022-09-07T07:39:07.176Z,45.81
2022-09-07T07:40:36.244Z,47.44
2022-09-07T07:42:06.367Z,47.29
2022-09-07T07:42:38.605Z,47.71
2022-09-07T07:43:39.564Z,47.05
2022-09-07T07:44:41.705Z,46.17
2022-09-07T07:46:01.214Z,45.00
2022-09-07T07:46:46.168Z,43.35
2022-09-07T07:47:46.078Z,43.47
2022-09-07T07:48:47.127Z,42.53
2022-09-07T07:49:49.641Z,41.55
2022-09-07T07:50:50.801Z,43.39
2022-09-07T07:53:55.820Z,45.95
2022-09-07T07:54:56.967Z,46.07
2022-09-07T07:55:59.134Z,47.51
2022-09-07T07:57:00.346Z,48.93
2022-09-07T07:58:02.477Z,49.06
2022-09-07T07:59:04.740Z,49.67
2022-09-07T08:00:06.902Z,50.21
2022-09-07T08:01:09.080Z,50.75
2022-09-07T08:02:11.326Z,51.47
2022-09-07T08:03:12.341Z,52.67
2022-09-07T08:04:13.562Z,52.70
2022-09-07T08:05:15.714Z,53.29
2022-09-07T08:06:17.845Z,54.08
2022-09-07T08:07:20.008Z,53.22
2022-09-07T08:08:22.157Z,53.84
2022-09-07T08:09:29.408Z,54.33
2022-09-07T08:10:26.011Z,55.02
2022-09-07T08:11:29.047Z,56.01
2022-09-07T08:12:29.862Z,55.52
2022-09-07T08:13:30.927Z,54.95
2022-09-07T08:14:32.196Z,56.17
2022-09-07T08:15:33.683Z,55.99
2022-09-07T08:16:34.846Z,55.90
2022-09-07T08:17:35.866Z,56.29
2022-09-07T08:18:36.833Z,56.89
2022-09-07T08:19:38.497Z,58.30
2022-09-07T08:20:40.671Z,58.30
2022-09-07T08:21:43.014Z,57.61
2022-09-07T08:22:45.142Z,58.12
2022-09-07T08:23:47.425Z,58.25
2022-09-07T08:24:49.589Z,58.36
2022-09-07T08:25:51.923Z,58.48
2022-09-07T08:26:52.901Z,58.58
2022-09-07T08:27:55.023Z,59.30
2022-09-07T08:28:57.165Z,59.30
2022-09-07T08:29:58.248Z,61.32
2022-09-07T08:30:59.628Z,59.23
2022-09-07T08:32:00.877Z,59.33
2022-09-07T08:33:02.799Z,59.56
2022-09-07T08:34:03.893Z,60.55
2022-09-07T08:35:05.072Z,59.86
2022-09-07T08:36:06.039Z,60.58
2022-09-07T08:37:08.208Z,60.78
2022-09-07T08:38:09.187Z,61.77
2022-09-07T08:39:11.312Z,62.37
2022-09-07T08:40:13.441Z,61.10
2022-09-07T08:41:15.591Z,61.40
2022-09-07T08:42:16.609Z,62.20
2022-09-07T08:43:18.744Z,61.80
2022-09-07T08:44:21.015Z,62.20
2022-09-07T08:45:23.137Z,62.37
2022-09-07T08:46:25.320Z,61.77
2022-09-07T08:47:26.663Z,62.07
2022-09-07T08:48:27.878Z,61.45
2022-09-07T08:49:30.081Z,62.34
2022-09-07T08:50:38.225Z,62.37
2022-09-07T08:51:34.974Z,61.15
2022-09-07T08:52:36.302Z,61.27
2022-09-07T08:53:37.329Z,61.08
2022-09-07T08:54:39.491Z,61.84
2022-09-07T08:55:41.624Z,61.15
2022-09-07T08:57:20.678Z,60.75
2022-09-07T08:57:46.024Z,61.54
2022-09-07T08:58:49.206Z,62.04
2022-09-07T08:59:48.349Z,62.04
2022-09-07T09:00:50.606Z,61.64
2022-09-07T09:02:28.386Z,60.75
2022-09-07T09:05:57.137Z,60.65
2022-09-07T09:06:58.410Z,60.45
2022-09-07T09:07:59.411Z,60.75
2022-09-07T09:09:01.539Z,60.45
2022-09-07T09:10:03.659Z,61.71
2022-09-07T09:11:05.779Z,60.43
2022-09-07T09:12:14.061Z,60.02
2022-09-07T09:13:09.438Z,59.90
2022-09-07T09:14:10.357Z,59.90
2022-09-07T09:15:12.490Z,59.17
2022-09-07T09:16:14.695Z,58.03
2022-09-07T09:17:16.875Z,57.58
2022-09-07T09:18:18.065Z,56.46
2022-09-07T09:19:20.401Z,55.74
2022-09-07T09:20:21.367Z,55.22
2022-09-07T09:21:23.687Z,54.73
2022-09-07T09:22:25.836Z,54.93
2022-09-07T09:23:27.953Z,55.12
2022-09-07T09:24:30.073Z,55.12
2022-09-07T09:25:31.153Z,55.25
2022-09-07T09:26:32.172Z,55.54
2022-09-07T09:27:33.444Z,55.54
2022-09-07T09:28:36.430Z,55.74
2022-09-07T09:29:37.620Z,55.45
2022-09-07T09:30:38.845Z,55.94
2022-09-07T09:31:41.064Z,55.74
2022-09-07T09:32:42.137Z,55.92
2022-09-07T09:33:44.258Z,55.00
2022-09-07T09:34:51.698Z,54.38
2022-09-07T09:35:46.811Z,53.14
2022-09-07T09:36:48.909Z,52.63
2022-09-07T09:37:51.056Z,51.49
2022-09-07T09:38:52.155Z,52.20
2022-09-07T09:39:55.515Z,52.40
2022-09-07T09:40:55.478Z,52.13
2022-09-07T09:41:57.624Z,53.29
2022-09-07T09:42:58.858Z,52.30
2022-09-07T09:44:00.995Z,52.40
2022-09-07T09:45:09.227Z,52.30
2022-09-07T09:46:13.610Z,51.59
2022-09-07T09:48:06.777Z,49.82
2022-09-07T09:49:08.005Z,50.41
2022-09-07T09:50:10.395Z,47.86
2022-09-07T09:52:30.204Z,45.86
2022-09-07T09:53:15.116Z,44.04
2022-09-07T09:54:14.908Z,43.29
2022-09-07T09:55:33.946Z,42.99
2022-09-07T09:56:18.248Z,42.05
2022-09-07T09:57:19.301Z,42.59
2022-09-07T10:00:29.292Z,42.00
2022-09-07T10:01:28.063Z,41.28
2022-09-07T10:04:28.420Z,43.21
2022-09-07T10:05:30.741Z,43.23
2022-09-07T10:06:31.817Z,42.70
2022-09-07T10:07:33.911Z,42.18
2022-09-07T10:08:36.073Z,41.55
2022-09-07T10:09:38.320Z,42.39
2022-09-07T10:10:39.623Z,42.31
2022-09-07T10:12:10.254Z,42.12
2022-09-07T10:12:44.059Z,42.10
2022-09-07T10:13:45.059Z,40.65
2022-09-07T10:14:53.304Z,39.76
2022-09-07T10:15:48.441Z,39.95
2022-09-07T10:16:50.581Z,39.50
2022-09-07T10:17:52.722Z,39.23
2022-09-07T10:18:53.822Z,40.05
2022-09-07T10:19:55.973Z,41.45
2022-09-07T10:20:58.133Z,41.88
2022-09-07T10:22:00.263Z,41.08
2022-09-07T10:23:01.292Z,41.59
2022-09-07T10:24:03.467Z,41.92
2022-09-07T10:25:05.600Z,42.12
2022-09-07T10:26:07.744Z,42.92
2022-09-07T10:27:09.943Z,43.35
2022-09-07T10:28:11.103Z,43.53
2022-09-07T10:29:12.339Z,42.73
2022-09-07T10:30:13.680Z,43.12
2022-09-07T10:31:15.570Z,42.92
2022-09-07T10:32:16.850Z,44.56
2022-09-07T10:33:19.028Z,43.97
2022-09-07T10:34:27.235Z,42.99
2022-09-07T10:35:22.940Z,42.18
2022-09-07T10:36:22.756Z,41.57
2022-09-07T10:37:24.894Z,41.16
2022-09-07T10:38:28.301Z,40.67
2022-09-07T10:39:28.251Z,42.08
2022-09-07T10:40:30.421Z,43.37
2022-09-07T10:41:32.548Z,43.21
2022-09-07T10:42:34.706Z,43.70
2022-09-07T10:43:36.828Z,42.78
2022-09-07T10:44:37.902Z,41.18
2022-09-07T10:45:40.025Z,40.99
2022-09-07T10:46:57.988Z,41.20
2022-09-07T10:47:44.404Z,41.63
2022-09-07T10:48:45.365Z,42.29
2022-09-07T10:50:48.728Z,41.12
2022-09-07T10:51:49.933Z,40.24
2022-09-07T10:52:52.075Z,40.83
2022-09-07T10:54:55.630Z,42.18
2022-09-07T10:55:57.128Z,41.69
2022-09-07T10:56:58.103Z,42.08
2022-09-07T10:58:00.238Z,42.37
2022-09-07T10:59:01.815Z,42.05
2022-09-07T11:00:10.923Z,42.62
2022-09-07T11:01:05.761Z,41.70
2022-09-07T11:02:06.757Z,42.30
2022-09-07T11:04:10.284Z,40.53
2022-09-07T11:05:12.573Z,40.94
2022-09-07T11:06:14.755Z,40.65
2022-09-07T11:07:16.856Z,41.35
2022-09-07T11:08:19.060Z,43.24
2022-09-07T11:09:20.255Z,42.73
2022-09-07T11:10:21.503Z,44.31
2022-09-07T11:12:00.799Z,44.92
2022-09-07T11:13:25.526Z,44.72
2022-09-07T11:14:27.699Z,44.84
2022-09-07T11:15:34.909Z,45.81
2022-09-07T11:16:58.118Z,44.94
2022-09-07T11:17:33.428Z,45.86
2022-09-07T11:18:33.612Z,45.27
2022-09-07T11:19:37.275Z,45.56
2022-09-07T11:20:37.555Z,46.35
2022-09-07T11:22:40.920Z,44.35
2022-09-07T11:23:43.044Z,43.66
2022-09-07T11:24:44.335Z,42.33
2022-09-07T11:25:46.821Z,41.86
2022-09-07T11:26:47.858Z,42.64
2022-09-07T11:27:48.814Z,42.15
2022-09-07T11:29:29.217Z,41.41
2022-09-07T11:29:52.175Z,39.50
2022-09-07T11:30:59.224Z,38.48
2022-09-07T11:31:55.769Z,37.76
2022-09-07T11:32:57.971Z,37.55
2022-09-07T11:34:28.874Z,38.87
2022-09-07T11:35:01.208Z,38.89
2022-09-07T11:36:02.238Z,39.37
2022-09-07T11:37:04.439Z,37.67
2022-09-07T11:38:06.566Z,37.34
2022-09-07T11:39:08.690Z,36.43
2022-09-07T11:40:10.925Z,35.82
2022-09-07T11:41:12.041Z,34.82
2022-09-07T11:42:44.357Z,35.01
2022-09-07T11:43:16.418Z,34.80
2022-09-07T11:44:17.385Z,35.28
2022-09-07T11:45:19.771Z,35.09
2022-09-07T11:46:20.902Z,34.13
2022-09-07T11:47:23.063Z,34.89
2022-09-07T11:48:30.305Z,34.70
2022-09-07T11:49:26.391Z,34.21
2022-09-07T11:50:28.481Z,34.41
2022-09-07T11:51:30.606Z,34.49
2022-09-07T11:52:32.658Z,33.64
2022-09-07T11:53:34.733Z,34.43
2022-09-07T11:54:36.849Z,34.72
2022-09-07T11:55:38.942Z,35.78
2022-09-07T11:56:45.593Z,34.61
2022-09-07T11:57:42.230Z,34.39
2022-09-07T11:58:44.334Z,33.61
2022-09-07T11:59:46.462Z,34.09
2022-09-07T12:00:48.593Z,34.69
2022-09-07T12:01:49.567Z,34.69
2022-09-07T12:03:00.511Z,34.59
2022-09-07T12:03:54.032Z,34.11
2022-09-07T12:04:56.578Z,34.24
2022-09-07T12:05:56.517Z,35.43
2022-09-07T12:06:58.611Z,34.75
2022-09-07T12:08:00.644Z,34.93
2022-09-07T12:09:02.681Z,35.79
2022-09-07T12:10:04.808Z,36.08
2022-09-07T12:11:06.915Z,35.98
2022-09-07T12:12:08.979Z,36.34
2022-09-07T12:13:11.043Z,36.14
2022-09-07T12:14:13.174Z,35.62
2022-09-07T12:15:15.285Z,35.91
2022-09-07T12:16:17.459Z,34.85
2022-09-07T12:17:19.604Z,34.74
2022-09-07T12:18:21.708Z,34.54
2022-09-07T12:19:23.819Z,35.62
2022-09-07T12:20:25.858Z,34.98
2022-09-07T12:21:27.027Z,35.52
2022-09-07T12:22:29.251Z,36.48
2022-09-07T12:23:30.122Z,36.00
2022-09-07T12:24:32.213Z,36.70
2022-09-07T12:25:34.355Z,36.44
2022-09-07T12:26:36.460Z,37.93
2022-09-07T12:27:38.556Z,38.63
2022-09-07T12:28:40.623Z,38.76
2022-09-07T12:29:45.796Z,39.99
2022-09-07T12:30:44.454Z,41.46
2022-09-07T12:31:57.742Z,43.65
2022-09-07T12:32:57.421Z,43.00
2022-09-07T12:33:51.055Z,43.43
2022-09-07T12:34:51.961Z,44.51
2022-09-07T12:35:53.519Z,44.61
2022-09-07T12:36:54.479Z,44.71
2022-09-07T12:37:56.513Z,44.73
2022-09-07T12:38:58.668Z,45.22
2022-09-07T12:39:59.859Z,46.39
2022-09-07T12:41:00.814Z,44.97
2022-09-07T12:43:09.657Z,45.38
2022-09-07T12:44:06.271Z,45.19
2022-09-07T12:45:07.177Z,44.50
2022-09-07T12:46:09.287Z,45.68
2022-09-07T12:47:11.421Z,45.78
2022-09-07T12:48:13.456Z,44.79
2022-09-07T12:49:14.662Z,46.58
2022-09-07T12:50:16.736Z,46.82
2022-09-07T12:51:59.630Z,47.04
2022-09-07T12:52:21.004Z,48.02
2022-09-07T12:53:21.912Z,47.76
2022-09-07T12:54:24.050Z,47.21
2022-09-07T12:55:29.171Z,49.20
2022-09-07T12:56:28.215Z,49.72
2022-09-07T12:57:30.418Z,50.68
2022-09-07T12:58:32.652Z,51.37
2022-09-07T12:59:34.897Z,50.65
2022-09-07T13:00:36.931Z,50.65
2022-09-07T13:01:39.101Z,51.32
2022-09-07T13:02:41.785Z,50.63
2022-09-07T13:03:51.368Z,50.43
2022-09-07T13:04:45.230Z,50.01
2022-09-07T13:05:46.416Z,49.45
2022-09-07T13:07:03.138Z,50.06
2022-09-07T13:07:49.658Z,50.83
2022-09-07T13:08:50.624Z,50.14
2022-09-07T13:09:51.735Z,51.71
2022-09-07T13:10:52.796Z,50.92
2022-09-07T13:11:54.172Z,51.20
2022-09-07T13:12:58.023Z,49.32
2022-09-07T13:14:05.301Z,49.25
2022-09-07T13:14:59.045Z,51.22
2022-09-07T13:16:01.287Z,50.63
2022-09-07T13:17:18.789Z,51.54
2022-09-07T13:18:05.625Z,49.47
2022-09-07T13:19:06.503Z,50.56
2022-09-07T13:20:08.571Z,50.18
2022-09-07T13:21:10.656Z,51.07
2022-09-07T13:22:11.797Z,50.68
2022-09-07T13:23:13.874Z,50.18
2022-09-07T13:24:46.340Z,50.36
2022-09-07T13:25:18.857Z,50.58
2022-09-07T13:26:18.985Z,50.75
2022-09-07T13:27:20.790Z,51.49
2022-09-07T13:28:21.843Z,51.51
2022-09-07T13:29:24.136Z,51.81
2022-09-07T13:30:25.154Z,52.11
2022-09-07T13:31:27.221Z,52.01
2022-09-07T13:33:30.727Z,51.47
2022-09-07T13:34:31.694Z,51.86
2022-09-07T13:35:33.778Z,50.58
2022-09-07T13:36:35.843Z,49.49
2022-09-07T13:37:37.958Z,49.79
2022-09-07T13:38:40.043Z,50.75
2022-09-07T13:39:42.299Z,49.18
2022-09-07T13:40:44.422Z,49.76
2022-09-07T13:41:46.543Z,49.37
2022-09-07T13:42:48.924Z,49.07
2022-09-07T13:43:49.827Z,50.65
2022-09-07T13:44:51.943Z,49.96
2022-09-07T13:45:54.085Z,49.35
2022-09-07T13:46:56.263Z,51.42
2022-09-07T13:47:58.568Z,49.03
2022-09-07T13:49:00.659Z,47.46
2022-09-07T13:50:02.728Z,47.75
2022-09-07T13:51:04.808Z,47.25
2022-09-07T13:52:06.883Z,47.16
2022-09-07T13:53:08.982Z,47.65
2022-09-07T13:54:10.107Z,48.34
2022-09-07T13:55:11.235Z,48.02
2022-09-07T13:56:12.613Z,48.71
2022-09-07T13:57:13.713Z,47.72
2022-09-07T13:58:15.796Z,47.53
2022-09-07T13:59:17.868Z,48.14
2022-09-07T14:00:20.153Z,48.83
2022-09-07T14:01:21.361Z,48.16
2022-09-07T14:02:22.620Z,48.76
2022-09-07T14:03:24.716Z,49.27
2022-09-07T14:04:26.787Z,49.96
2022-09-07T14:05:28.823Z,50.16
2022-09-07T14:06:30.941Z,50.06
2022-09-07T14:07:33.081Z,49.76
2022-09-07T14:08:39.678Z,49.57
2022-09-07T14:09:37.463Z,50.75
2022-09-07T14:10:38.381Z,50.09
2022-09-07T14:11:40.524Z,50.48
2022-09-07T14:12:42.593Z,50.58
2022-09-07T14:13:44.888Z,51.07
2022-09-07T14:14:45.771Z,49.69
2022-09-07T14:15:48.079Z,50.97
2022-09-07T14:16:49.077Z,49.67
2022-09-07T14:17:57.263Z,51.25
2022-09-07T14:18:52.348Z,51.15
2022-09-07T14:19:54.418Z,52.13
2022-09-07T14:20:56.502Z,49.96
2022-09-07T14:21:58.579Z,49.67
2022-09-07T14:23:00.621Z,49.87
2022-09-07T14:24:02.855Z,49.89
2022-09-07T14:25:03.754Z,50.11
2022-09-07T14:26:21.267Z,50.33
2022-09-07T14:27:08.085Z,50.53
2022-09-07T14:28:08.981Z,50.33
2022-09-07T14:29:10.130Z,50.73
2022-09-07T14:30:12.252Z,50.04
2022-09-07T14:31:14.400Z,50.80
2022-09-07T14:32:15.358Z,50.28
2022-09-07T14:33:18.007Z,49.49
2022-09-07T14:34:18.979Z,49.27
2022-09-07T14:35:21.044Z,50.65
2022-09-07T14:36:42.490Z,48.76
2022-09-07T14:37:25.320Z,48.68
2022-09-07T14:39:27.548Z,49.20
2022-09-07T14:40:30.045Z,50.18
2022-09-07T14:41:30.991Z,49.79
2022-09-07T14:42:33.066Z,50.11
2022-09-07T14:43:35.198Z,50.04
2022-09-07T14:44:38.762Z,50.92
2022-09-07T14:45:38.830Z,51.42
2022-09-07T14:46:39.781Z,50.40
2022-09-07T14:47:41.883Z,50.01
2022-09-07T14:48:45.427Z,51.09
2022-09-07T14:49:45.700Z,50.61
2022-09-07T14:50:57.093Z,51.59
2022-09-07T14:51:49.960Z,50.92
2022-09-07T14:53:52.152Z,51.22
2022-09-07T14:54:54.221Z,51.22
2022-09-07T14:55:56.309Z,51.02
2022-09-07T14:56:57.691Z,51.44
2022-09-07T14:57:58.820Z,52.23
2022-09-07T14:59:00.990Z,52.23
2022-09-07T15:00:03.066Z,52.63
2022-09-07T15:02:05.459Z,52.43
2022-09-07T15:03:07.619Z,53.71
2022-09-07T15:04:08.639Z,52.83
2022-09-07T15:05:10.725Z,51.84
2022-09-07T15:07:00.925Z,51.96
2022-09-07T15:07:21.123Z,52.26
2022-09-07T15:08:15.093Z,52.45
2022-09-07T15:09:17.217Z,51.94
2022-09-07T15:10:19.345Z,52.33
2022-09-07T15:11:34.643Z,51.54
2022-09-07T15:12:33.012Z,51.44
2022-09-07T15:13:26.001Z,51.25
2022-09-07T15:14:26.906Z,51.44
2022-09-07T15:15:28.977Z,51.47
2022-09-07T15:16:31.219Z,52.16
2022-09-07T15:17:47.791Z,51.84
2022-09-07T15:18:34.452Z,52.36
2022-09-07T15:19:35.363Z,51.07
2022-09-07T15:20:37.475Z,51.47
2022-09-07T15:21:39.655Z,51.47
2022-09-07T15:22:39.468Z,51.37
2022-09-07T15:23:40.795Z,51.96
2022-09-07T15:24:42.865Z,51.86
2022-09-07T15:25:50.268Z,51.56
2022-09-07T15:27:47.539Z,51.96
2022-09-07T15:29:49.912Z,51.67
2022-09-07T15:31:40.459Z,52.45
2022-09-07T15:32:02.218Z,51.86
2022-09-07T15:32:54.499Z,52.48
2022-09-07T15:33:55.503Z,52.58
2022-09-07T15:34:57.589Z,52.68
2022-09-07T15:35:58.991Z,54.06
2022-09-07T15:37:00.846Z,53.86
2022-09-07T15:38:04.659Z,54.36
2022-09-07T15:39:03.965Z,54.58
2022-09-07T15:40:05.305Z,54.58
2022-09-07T15:41:23.635Z,54.78
2022-09-07T15:43:19.881Z,54.78
2022-09-07T15:44:13.747Z,55.08
2022-09-07T15:45:12.432Z,54.48
2022-09-07T15:46:14.492Z,55.18
2022-09-07T15:48:17.859Z,54.19
2022-09-07T15:49:19.933Z,55.57
2022-09-07T15:50:23.565Z,54.58
2022-09-07T15:52:31.482Z,55.18
2022-09-07T15:54:27.873Z,54.58
2022-09-07T15:55:29.937Z,53.89
2022-09-07T15:56:32.012Z,53.99
2022-09-07T15:57:51.337Z,52.90
2022-09-07T15:58:35.433Z,53.60
2022-09-07T15:59:36.332Z,53.10
2022-09-07T16:00:38.496Z,53.00
2022-09-07T16:01:55.806Z,52.80
2022-09-07T16:03:11.798Z,52.80
2022-09-07T16:03:42.880Z,52.50
2022-09-07T16:04:44.053Z,52.61
2022-09-07T16:05:45.119Z,52.41
2022-09-07T16:06:48.233Z,52.31
2022-09-07T16:08:51.777Z,52.68
2022-09-07T16:09:52.852Z,53.27
2022-09-07T16:10:54.422Z,53.37
2022-09-07T16:11:55.476Z,54.26
2022-09-07T16:13:10.727Z,53.57
2022-09-07T16:14:01.694Z,54.06
2022-09-07T16:14:59.559Z,53.10
2022-09-07T16:16:00.607Z,52.70
2022-09-07T16:18:02.785Z,52.70
2022-09-07T16:19:07.254Z,52.88
2022-09-07T16:20:05.279Z,51.59
2022-09-07T16:21:11.762Z,52.88
2022-09-07T16:22:08.994Z,52.68
2022-09-07T16:23:13.709Z,52.68
2022-09-07T16:24:11.949Z,54.36
2022-09-07T16:25:14.125Z,53.49
2022-09-07T16:26:16.216Z,54.48
2022-09-07T16:27:18.718Z,54.09
2022-09-07T16:28:19.687Z,54.26
2022-09-07T16:29:21.726Z,54.55
2022-09-07T16:30:23.792Z,54.16
2022-09-07T16:31:26.616Z,54.26
2022-09-07T16:32:57.686Z,54.06
2022-09-07T16:33:36.715Z,54.06
2022-09-07T16:34:32.272Z,54.06
2022-09-07T16:35:33.177Z,53.96
2022-09-07T16:36:35.455Z,54.16
2022-09-07T16:37:36.880Z,54.06
2022-09-07T16:38:45.634Z,54.26
2022-09-07T16:39:40.219Z,54.85
2022-09-07T16:40:41.562Z,55.45
2022-09-07T16:41:42.629Z,54.85
2022-09-07T16:42:45.461Z,54.53
2022-09-07T16:43:46.190Z,54.23
2022-09-07T16:44:47.823Z,55.12
2022-09-07T16:46:04.846Z,54.43
2022-09-07T16:46:51.173Z,54.63
2022-09-07T16:47:51.163Z,54.66
2022-09-07T16:48:53.286Z,54.55
2022-09-07T16:49:55.383Z,54.26
2022-09-07T16:51:01.684Z,54.13
2022-09-07T16:51:59.113Z,54.13
2022-09-07T16:52:58.896Z,54.23
2022-09-07T16:54:00.995Z,54.23
2022-09-07T16:55:03.145Z,54.23
2022-09-07T16:56:05.222Z,54.13
2022-09-07T16:57:06.380Z,54.13
2022-09-07T16:58:38.601Z,54.13
2022-09-07T16:59:10.907Z,54.13
2022-09-07T17:00:11.811Z,54.43
2022-09-07T17:01:13.948Z,54.76
2022-09-07T17:02:16.099Z,54.85
2022-09-07T17:03:18.360Z,54.95
2022-09-07T17:04:20.573Z,55.05
2022-09-07T17:05:21.535Z,55.37
2022-09-07T17:06:23.875Z,55.77
2022-09-07T17:07:24.771Z,55.67
2022-09-07T17:08:26.908Z,56.49
2022-09-07T17:09:27.845Z,56.79
2022-09-07T17:10:30.208Z,57.01
2022-09-07T17:11:32.318Z,57.11
2022-09-07T17:12:33.309Z,58.10
2022-09-07T17:13:35.158Z,57.11
2022-09-07T17:14:36.158Z,57.11
2022-09-07T17:15:38.317Z,57.01
2022-09-07T17:16:40.494Z,57.83
2022-09-07T17:17:41.456Z,57.93
2022-09-07T17:19:44.982Z,59.52
2022-09-07T17:20:46.128Z,59.44
2022-09-07T17:21:47.024Z,59.54
2022-09-07T17:22:49.100Z,58.95
2022-09-07T17:23:55.144Z,59.17
2022-09-07T17:24:53.347Z,59.27
2022-09-07T17:26:01.622Z,59.08
2022-09-07T17:26:59.427Z,59.67
2022-09-07T17:27:58.160Z,60.86
2022-09-07T17:29:00.985Z,59.80
2022-09-07T17:30:02.190Z,60.40
2022-09-07T17:31:04.345Z,60.89
2022-09-07T17:33:07.958Z,61.71
2022-09-07T17:34:08.933Z,62.01
2022-09-07T17:35:11.005Z,61.91
2022-09-07T17:36:13.111Z,62.24
2022-09-07T17:37:15.191Z,62.64
2022-09-07T17:39:19.495Z,63.16
2022-09-07T17:40:20.705Z,63.36
2022-09-07T17:41:22.863Z,63.56
